Time;durP1;ratioP1;P1;durP2;ratioP2;P2;SDS_P1;SDS_P2;PMS_P1;PMS_P2;Temp;Humidity;BMP_temperature;BMP_pressure;BME280_temperature;BME280_humidity;BME280_pressure;Samples;Min_cycle;Max_cycle;Signal;HPM_P1;HPM_P2
2022/04/04 00:02:00;;;;;;;1.00;0.80;;;21.50;50.30;;;;;;5089022;28;20445;-89
2022/04/04 00:04:29;;;;;;;1.07;0.70;;;21.60;50.30;;;;;;5088125;28;20202;-88
2022/04/04 00:06:55;;;;;;;1.10;0.70;;;21.60;50.30;;;;;;5086914;28;20432;-89
2022/04/04 00:09:20;;;;;;;1.00;0.80;;;21.60;50.30;;;;;;5089837;28;20405;-90
2022/04/04 00:11:46;;;;;;;1.03;0.80;;;21.60;50.30;;;;;;5090714;28;20197;-88
2022/04/04 00:14:12;;;;;;;1.10;0.60;;;21.60;50.30;;;;;;5089479;28;20249;-88
2022/04/04 00:16:38;;;;;;;0.90;0.70;;;21.60;50.20;;;;;;5088196;28;20420;-89
2022/04/04 00:19:05;;;;;;;1.00;0.70;;;21.60;50.20;;;;;;5069636;28;20420;-90
2022/04/04 00:21:32;;;;;;;1.07;0.80;;;21.60;50.20;;;;;;5087705;28;20200;-89
2022/04/04 00:23:57;;;;;;;0.80;0.60;;;21.70;50.30;;;;;;5086266;28;20467;-90
2022/04/04 00:29:46;;;;;;;0.90;0.80;;;21.70;50.20;;;;;;5087088;28;20159;-90
2022/04/04 00:35:34;;;;;;;1.40;0.80;;;21.70;50.20;;;;;;5087019;28;20761;-89
2022/04/04 00:41:22;;;;;;;1.37;0.70;;;21.60;50.20;;;;;;5086366;28;20200;-90
2022/04/04 00:43:52;;;;;;;1.10;0.70;;;21.60;50.20;;;;;;5085240;28;20453;-90
2022/04/04 00:46:19;;;;;;;0.80;0.60;;;21.60;50.20;;;;;;5085542;28;20664;-89
2022/04/04 00:48:46;;;;;;;1.10;0.70;;;21.60;50.20;;;;;;5085377;28;20413;-90
2022/04/04 00:51:12;;;;;;;1.13;0.80;;;21.60;50.20;;;;;;5084972;28;20413;-90
2022/04/04 00:53:38;;;;;;;0.90;0.60;;;21.60;50.20;;;;;;5084893;28;20434;-90
2022/04/04 00:59:25;;;;;;;1.70;0.90;;;21.70;50.20;;;;;;5089230;28;20896;-90
2022/04/04 01:01:51;;;;;;;0.80;0.60;;;21.60;50.10;;;;;;5107335;28;20427;-90
2022/04/04 01:04:17;;;;;;;0.90;0.70;;;21.60;50.70;;;;;;5107064;28;20291;-89
2022/04/04 01:06:46;;;;;;;0.90;0.70;;;21.60;50.20;;;;;;5105809;28;20560;-90
2022/04/04 01:09:15;;;;;;;1.00;0.70;;;21.60;50.20;;;;;;5107970;28;20436;-89
2022/04/04 01:12:09;;;;;;;1.00;0.70;;;21.60;50.10;;;;;;5107477;28;20434;-90
2022/04/04 01:14:41;;;;;;;0.77;0.63;;;21.70;50.20;;;;;;5107326;28;20445;-89
2022/04/04 01:17:08;;;;;;;1.10;0.70;;;21.70;50.20;;;;;;5108157;28;20412;-90
2022/04/04 01:19:34;;;;;;;1.10;0.80;;;21.60;50.10;;;;;;5105634;28;20419;-89
2022/04/04 01:22:00;;;;;;;1.10;0.60;;;21.60;50.10;;;;;;5107049;28;20534;-89
2022/04/04 01:24:26;;;;;;;0.90;0.70;;;21.60;50.10;;;;;;5106473;28;20463;-89
2022/04/04 01:26:53;;;;;;;1.10;1.00;;;21.70;50.20;;;;;;5105250;28;20422;-90
2022/04/04 01:29:20;;;;;;;1.13;0.70;;;21.60;50.10;;;;;;5106328;28;20418;-89
2022/04/04 01:31:50;;;;;;;0.83;0.70;;;21.70;50.10;;;;;;5109593;28;20408;-89
2022/04/04 01:34:19;;;;;;;1.40;0.70;;;21.70;50.10;;;;;;5109617;28;20424;-88
2022/04/04 01:36:45;;;;;;;1.10;0.83;;;21.70;50.10;;;;;;5108522;28;20411;-90
2022/04/04 01:39:11;;;;;;;1.00;0.80;;;21.70;50.10;;;;;;5109442;28;20822;-89
2022/04/04 01:41:39;;;;;;;0.90;0.70;;;21.70;50.10;;;;;;5108667;28;20170;-89
2022/04/04 01:44:05;;;;;;;0.90;0.60;;;21.70;50.10;;;;;;5109004;28;20451;-89
2022/04/04 01:49:53;;;;;;;0.83;0.60;;;21.70;50.10;;;;;;5110073;28;20378;-89
2022/04/04 01:52:19;;;;;;;1.00;0.70;;;21.70;50.10;;;;;;5110017;28;20420;-89
2022/04/04 01:54:45;;;;;;;0.80;0.60;;;21.60;50.10;;;;;;5109430;28;20206;-89
2022/04/04 01:57:11;;;;;;;1.27;0.90;;;21.70;50.10;;;;;;5109546;28;20234;-88
2022/04/04 01:59:37;;;;;;;1.00;0.70;;;21.70;50.10;;;;;;5110670;28;20503;-89
2022/04/04 02:02:03;;;;;;;0.90;0.70;;;21.70;50.10;;;;;;5091437;28;20190;-90
2022/04/04 02:04:28;;;;;;;1.50;1.30;;;21.70;50.10;;;;;;5090776;28;20213;-90
2022/04/04 02:10:16;;;;;;;1.27;0.80;;;21.70;50.10;;;;;;5091790;28;20363;-89
2022/04/04 02:12:45;;;;;;;0.90;0.60;;;21.70;50.10;;;;;;5092705;28;20404;-89
2022/04/04 02:15:12;;;;;;;1.50;0.70;;;21.70;50.10;;;;;;5091059;28;20417;-89
2022/04/04 02:17:37;;;;;;;0.90;0.70;;;21.70;50.10;;;;;;5090605;28;20427;-90
2022/04/04 02:20:04;;;;;;;1.73;0.83;;;21.70;50.10;;;;;;5107192;28;20419;-89
2022/04/04 02:22:29;;;;;;;0.90;0.70;;;21.70;50.10;;;;;;5108968;28;20174;-90
2022/04/04 02:24:55;;;;;;;0.90;0.77;;;21.70;50.10;;;;;;5108091;28;20550;-90
2022/04/04 02:27:22;;;;;;;0.80;0.60;;;21.70;50.10;;;;;;5108012;28;20154;-89
2022/04/04 02:29:47;;;;;;;0.90;0.60;;;21.70;50.10;;;;;;5107501;28;20195;-89
2022/04/04 02:32:13;;;;;;;0.87;0.70;;;21.70;50.10;;;;;;5107120;28;20412;-89
2022/04/04 02:34:39;;;;;;;0.97;0.70;;;21.70;50.10;;;;;;5108436;28;20181;-90
2022/04/04 02:37:05;;;;;;;1.00;0.70;;;21.70;50.10;;;;;;5108649;28;20203;-89
2022/04/04 02:39:30;;;;;;;0.90;0.70;;;21.70;50.10;;;;;;5107923;28;20185;-89
2022/04/04 02:41:56;;;;;;;0.93;0.60;;;21.70;50.10;;;;;;5106471;28;20186;-89
2022/04/04 02:44:22;;;;;;;0.90;0.63;;;21.70;50.10;;;;;;5108363;28;20269;-88
2022/04/04 02:50:11;;;;;;;0.90;0.70;;;21.70;50.10;;;;;;5108885;28;20584;-88
2022/04/04 02:52:37;;;;;;;0.97;0.63;;;21.60;50.00;;;;;;5107986;28;20423;-88
2022/04/04 02:56:29;;;;;;;1.00;0.70;;;21.60;50.00;;;;;;5107738;28;20502;-88
2022/04/04 02:57:51;;;;;;;1.00;0.80;;;21.60;50.00;;;;;;5110439;28;20430;-89
2022/04/04 03:00:17;;;;;;;1.03;0.90;;;21.60;50.00;;;;;;5098623;28;20447;-89
2022/04/04 03:02:44;;;;;;;0.80;0.70;;;21.60;50.00;;;;;;5087929;28;20444;-89
2022/04/04 03:05:10;;;;;;;1.10;0.70;;;21.60;50.10;;;;;;5089947;28;20511;-89
2022/04/04 03:07:36;;;;;;;1.10;0.70;;;21.60;50.70;;;;;;5089761;28;20420;-89
2022/04/04 03:10:05;;;;;;;1.00;0.70;;;21.60;50.10;;;;;;5087811;28;20196;-89
2022/04/04 03:12:32;;;;;;;1.00;0.70;;;21.60;50.10;;;;;;5088960;28;20167;-88
2022/04/04 03:14:57;;;;;;;0.83;0.60;;;21.60;50.10;;;;;;5089211;28;20416;-89
2022/04/04 03:17:25;;;;;;;0.90;0.67;;;21.60;50.10;;;;;;5086598;28;20489;-90
2022/04/04 03:19:51;;;;;;;1.00;0.70;;;21.60;50.10;;;;;;5086846;28;20421;-90
2022/04/04 03:22:17;;;;;;;0.90;0.60;;;21.60;50.00;;;;;;5087941;28;20803;-89
2022/04/04 03:24:44;;;;;;;0.90;0.70;;;21.60;50.00;;;;;;5087677;28;20444;-89
2022/04/04 03:27:13;;;;;;;0.80;0.60;;;21.60;50.00;;;;;;5088251;28;20249;-90
2022/04/04 03:29:45;;;;;;;0.87;0.60;;;21.60;50.00;;;;;;5088433;28;20403;-89
2022/04/04 03:32:11;;;;;;;0.90;0.70;;;21.70;50.10;;;;;;5086680;28;20920;-90
2022/04/04 03:34:37;;;;;;;0.83;0.60;;;21.60;50.00;;;;;;5086750;28;20428;-89
2022/04/04 03:37:05;;;;;;;0.90;0.60;;;21.60;50.00;;;;;;5087177;28;20529;-90
2022/04/04 03:39:34;;;;;;;0.97;0.70;;;21.60;50.00;;;;;;5085623;28;20413;-89
2022/04/04 03:42:00;;;;;;;0.83;0.70;;;21.70;50.10;;;;;;5087758;28;20419;-89
2022/04/04 03:44:25;;;;;;;1.00;0.90;;;21.70;50.00;;;;;;5087688;28;20452;-90
2022/04/04 03:46:51;;;;;;;1.20;0.77;;;21.70;50.00;;;;;;5086142;28;20170;-89
2022/04/04 03:49:17;;;;;;;1.00;0.70;;;21.70;50.00;;;;;;5085969;28;20178;-89
2022/04/04 03:51:43;;;;;;;1.00;0.70;;;21.70;50.00;;;;;;5086119;28;20423;-89
2022/04/04 03:54:09;;;;;;;1.00;0.60;;;21.70;50.00;;;;;;5092431;28;20439;-90
2022/04/04 03:56:41;;;;;;;1.07;0.80;;;21.70;50.00;;;;;;5106034;28;20178;-89
2022/04/04 03:59:07;;;;;;;0.87;0.60;;;21.70;50.00;;;;;;5108014;28;20181;-89
2022/04/04 04:01:34;;;;;;;0.90;0.70;;;21.70;50.00;;;;;;5107888;28;20448;-89
2022/04/04 04:04:00;;;;;;;0.90;0.60;;;21.70;50.00;;;;;;5106459;28;20194;-90
2022/04/04 04:06:25;;;;;;;0.87;0.67;;;21.70;50.00;;;;;;5106115;28;20465;-89
2022/04/04 04:08:51;;;;;;;0.90;0.70;;;21.70;50.00;;;;;;5106956;28;20174;-89
2022/04/04 04:11:18;;;;;;;0.80;0.60;;;21.60;49.90;;;;;;5106731;28;20182;-89
2022/04/04 04:13:47;;;;;;;0.80;0.60;;;21.60;49.90;;;;;;5106185;28;20435;-90
2022/04/04 04:16:13;;;;;;;0.93;0.70;;;21.60;49.90;;;;;;5105821;28;20438;-89
2022/04/04 04:18:40;;;;;;;0.90;0.60;;;21.60;49.90;;;;;;5107507;28;20511;-90
2022/04/04 04:21:09;;;;;;;1.20;0.70;;;21.60;49.90;;;;;;5105355;28;20178;-89
2022/04/04 04:23:39;;;;;;;1.10;0.60;;;21.60;49.90;;;;;;5107467;28;20459;-90
2022/04/04 04:26:13;;;;;;;1.10;0.60;;;21.60;49.90;;;;;;5106591;28;20408;-89
2022/04/04 04:28:39;;;;;;;1.03;0.80;;;21.60;49.90;;;;;;5105912;28;20416;-88
2022/04/04 04:31:06;;;;;;;1.10;0.90;;;21.60;49.90;;;;;;5105372;28;20502;-88
2022/04/04 04:33:32;;;;;;;1.00;0.70;;;21.60;49.90;;;;;;5106323;28;20415;-89
2022/04/04 04:36:03;;;;;;;1.03;0.80;;;21.60;50.00;;;;;;5108045;28;20435;-88
2022/04/04 04:38:30;;;;;;;1.30;0.70;;;21.60;50.00;;;;;;5107012;28;20423;-88
2022/04/04 04:40:57;;;;;;;1.03;0.70;;;21.60;50.00;;;;;;5107560;28;20505;-88
2022/04/04 04:43:32;;;;;;;0.90;0.60;;;21.60;50.00;;;;;;5105977;28;20490;-88
2022/04/04 04:46:08;;;;;;;0.90;0.60;;;21.60;50.00;;;;;;5107181;28;20478;-88
2022/04/04 04:48:37;;;;;;;0.80;0.60;;;21.50;50.00;;;;;;5105978;28;20418;-89
2022/04/04 04:51:03;;;;;;;0.90;0.63;;;21.50;50.00;;;;;;5105455;28;20491;-88
2022/04/04 04:56:51;;;;;;;1.00;0.90;;;21.50;50.00;;;;;;5107388;28;20153;-89
2022/04/04 05:02:39;;;;;;;0.80;0.60;;;21.50;50.10;;;;;;5106952;28;20371;-90
2022/04/04 05:08:29;;;;;;;0.90;0.60;;;21.50;50.10;;;;;;5109904;28;20504;-88
2022/04/04 05:10:55;;;;;;;0.80;0.60;;;21.50;50.10;;;;;;5110004;28;20435;-88
2022/04/04 05:13:55;;;;;;;0.90;0.60;;;21.50;50.10;;;;;;5109378;28;20411;-88
2022/04/04 05:16:28;;;;;;;1.03;0.73;;;21.50;50.10;;;;;;5110618;28;20176;-88
2022/04/04 05:18:55;;;;;;;1.03;0.70;;;21.50;50.10;;;;;;5110770;28;20388;-88
2022/04/04 05:21:21;;;;;;;1.00;0.67;;;21.50;50.10;;;;;;5109165;28;20411;-88
2022/04/04 05:23:47;;;;;;;0.80;0.60;;;21.60;50.20;;;;;;5108837;28;20459;-88
2022/04/04 05:26:19;;;;;;;1.10;0.80;;;21.50;50.10;;;;;;5109844;28;20415;-91
2022/04/04 05:28:45;;;;;;;0.87;0.67;;;21.60;50.20;;;;;;5109468;28;20424;-89
2022/04/04 05:31:10;;;;;;;0.90;0.60;;;21.60;50.10;;;;;;5109347;28;20520;-89
2022/04/04 05:33:36;;;;;;;1.00;0.70;;;21.60;50.10;;;;;;5102804;28;20208;-89
2022/04/04 05:36:05;;;;;;;1.10;0.70;;;21.60;50.10;;;;;;5102847;28;20182;-87
2022/04/04 05:38:32;;;;;;;1.10;0.70;;;21.60;50.10;;;;;;5105161;28;20913;-89
2022/04/04 05:40:58;;;;;;;0.80;0.60;;;21.60;50.10;;;;;;5089705;28;20408;-89
2022/04/04 05:43:26;;;;;;;0.80;0.60;;;21.60;50.10;;;;;;5089330;28;20811;-88
2022/04/04 05:45:53;;;;;;;1.00;0.60;;;21.60;50.00;;;;;;5105371;28;20448;-90
2022/04/04 05:48:19;;;;;;;1.10;0.70;;;21.60;50.00;;;;;;5088831;28;20434;-89
2022/04/04 05:50:45;;;;;;;1.10;0.70;;;21.60;50.00;;;;;;5087961;28;20423;-88
2022/04/04 05:53:14;;;;;;;0.80;0.60;;;21.70;50.00;;;;;;5087937;28;20413;-89
2022/04/04 05:55:39;;;;;;;1.00;0.60;;;21.70;50.00;;;;;;5088704;28;20200;-89
2022/04/04 05:58:05;;;;;;;0.80;0.60;;;21.70;50.00;;;;;;5087860;28;20417;-88
2022/04/04 06:00:34;;;;;;;0.93;0.67;;;21.70;50.00;;;;;;5088005;28;20174;-89
2022/04/04 06:02:59;;;;;;;0.97;0.80;;;21.70;49.90;;;;;;5089362;28;20174;-88
2022/04/04 06:08:47;;;;;;;0.90;0.60;;;21.80;50.00;;;;;;5088783;28;20223;-89
2022/04/04 06:11:13;;;;;;;0.80;0.60;;;21.70;49.90;;;;;;5089725;28;20448;-88
2022/04/04 06:13:40;;;;;;;0.80;0.60;;;21.80;50.00;;;;;;5088174;28;20530;-89
2022/04/04 06:16:09;;;;;;;0.83;0.60;;;21.80;50.00;;;;;;5087466;28;20189;-89
2022/04/04 06:18:35;;;;;;;0.97;0.60;;;21.80;49.90;;;;;;5115648;28;20496;-89
2022/04/04 06:21:02;;;;;;;0.80;0.60;;;21.80;49.90;;;;;;5108627;28;20507;-89
2022/04/04 06:23:28;;;;;;;0.97;0.67;;;21.80;49.90;;;;;;5107721;28;20459;-88
2022/04/04 06:25:54;;;;;;;0.90;0.63;;;21.80;49.90;;;;;;5109073;28;20415;-88
2022/04/04 06:28:23;;;;;;;0.90;0.70;;;21.80;49.80;;;;;;5107520;28;20420;-88
2022/04/04 06:30:49;;;;;;;1.00;0.80;;;21.80;49.80;;;;;;5108608;28;20205;-89
2022/04/04 06:33:14;;;;;;;1.00;0.90;;;21.80;49.80;;;;;;5108120;28;20906;-89
2022/04/04 06:35:40;;;;;;;0.90;0.63;;;21.90;49.90;;;;;;5107444;28;20173;-88
2022/04/04 06:38:06;;;;;;;0.90;0.70;;;21.90;49.90;;;;;;5108909;28;20244;-88
2022/04/04 06:40:32;;;;;;;0.90;0.60;;;21.90;49.90;;;;;;5096390;28;20179;-88
2022/04/04 06:42:58;;;;;;;0.90;0.70;;;21.90;49.90;;;;;;5087179;28;20178;-88
2022/04/04 06:45:24;;;;;;;0.87;0.60;;;21.90;49.80;;;;;;5087166;28;20191;-88
2022/04/04 06:47:51;;;;;;;1.40;0.80;;;21.90;49.80;;;;;;5088349;28;20425;-88
2022/04/04 06:50:17;;;;;;;0.90;0.70;;;21.90;49.80;;;;;;5089205;28;21000;-88
2022/04/04 06:52:44;;;;;;;0.90;0.63;;;21.90;49.80;;;;;;5087655;28;20404;-88
2022/04/04 06:55:11;;;;;;;0.90;0.70;;;21.90;49.80;;;;;;5087316;28;20417;-88
2022/04/04 06:57:37;;;;;;;0.80;0.67;;;21.90;49.80;;;;;;5092126;28;20420;-88
2022/04/04 07:00:03;;;;;;;0.90;0.67;;;21.90;49.80;;;;;;5087255;28;20773;-88
2022/04/04 07:02:29;;;;;;;1.00;0.80;;;21.90;49.80;;;;;;5087771;28;20792;-88
2022/04/04 07:04:55;;;;;;;0.80;0.60;;;21.90;49.80;;;;;;5068289;28;20464;-88
2022/04/04 07:07:22;;;;;;;0.87;0.60;;;21.90;49.80;;;;;;5069603;28;20198;-88
2022/04/04 07:09:48;;;;;;;1.07;0.77;;;21.90;49.80;;;;;;5070562;28;20183;-88
2022/04/04 07:12:14;;;;;;;0.70;0.60;;;21.90;49.80;;;;;;5066931;28;20418;-88
2022/04/04 07:14:39;;;;;;;0.80;0.60;;;21.90;50.30;;;;;;5067258;28;20178;-87
2022/04/04 07:20:28;;;;;;;0.80;0.60;;;21.90;49.80;;;;;;5067694;28;20177;-89
2022/04/04 07:22:54;;;;;;;1.00;0.60;;;21.90;49.80;;;;;;5066486;28;20923;-89
2022/04/04 07:25:21;;;;;;;1.00;0.70;;;21.90;49.80;;;;;;5066708;28;20453;-89
2022/04/04 07:27:48;;;;;;;0.93;0.70;;;21.90;49.80;;;;;;5067002;28;20426;-89
2022/04/04 07:30:17;;;;;;;1.23;0.77;;;21.90;49.80;;;;;;5068051;28;20414;-89
2022/04/04 07:32:44;;;;;;;0.80;0.63;;;21.90;49.80;;;;;;5066917;28;20919;-89
2022/04/04 07:35:11;;;;;;;0.80;0.60;;;21.90;49.80;;;;;;5067714;28;20871;-89
2022/04/04 07:37:44;;;;;;;0.93;0.70;;;21.90;49.80;;;;;;5067624;28;20414;-88
2022/04/04 07:40:13;;;;;;;1.00;0.80;;;21.90;49.80;;;;;;5066480;28;20421;-88
2022/04/04 07:42:42;;;;;;;0.80;0.60;;;21.90;49.80;;;;;;5067634;28;20455;-88
2022/04/04 07:45:10;;;;;;;0.80;0.50;;;21.90;49.80;;;;;;5067446;28;20475;-88
2022/04/04 07:47:37;;;;;;;1.00;0.70;;;21.90;49.80;;;;;;5066078;28;20418;-89
2022/04/04 07:50:05;;;;;;;0.80;0.60;;;21.90;49.80;;;;;;5066640;28;20435;-90
2022/04/04 07:52:33;;;;;;;0.80;0.60;;;21.90;49.80;;;;;;5068154;28;20402;-89
2022/04/04 07:54:59;;;;;;;0.90;0.70;;;21.90;49.80;;;;;;5067015;28;20475;-89
2022/04/04 07:57:25;;;;;;;0.80;0.60;;;21.90;49.80;;;;;;5067432;28;20405;-89
2022/04/04 07:59:51;;;;;;;0.90;0.60;;;21.90;49.80;;;;;;5068552;28;20194;-89
2022/04/04 08:02:20;;;;;;;1.00;0.70;;;21.90;49.80;;;;;;5066934;28;20406;-89
2022/04/04 08:04:48;;;;;;;0.87;0.60;;;22.00;49.90;;;;;;5066253;28;20541;-89
2022/04/04 08:10:36;;;;;;;0.80;0.60;;;22.00;49.90;;;;;;5067179;28;20440;-88
2022/04/04 08:13:02;;;;;;;0.77;0.57;;;21.90;49.80;;;;;;5066085;28;20417;-89
2022/04/04 08:15:28;;;;;;;1.03;0.73;;;21.90;49.80;;;;;;5065549;28;20444;-88
2022/04/04 08:17:54;;;;;;;1.40;0.60;;;21.90;49.80;;;;;;5067224;28;20420;-89
2022/04/04 08:20:21;;;;;;;0.70;0.60;;;21.90;49.80;;;;;;5066006;28;20421;-89
2022/04/04 08:22:47;;;;;;;0.90;0.50;;;21.90;49.80;;;;;;5067503;28;20185;-89
2022/04/04 08:25:17;;;;;;;0.90;0.60;;;21.90;49.80;;;;;;5065995;28;20472;-89
2022/04/04 08:27:43;;;;;;;0.93;0.60;;;22.00;49.90;;;;;;5085053;28;21005;-89
2022/04/04 08:30:11;;;;;;;1.00;0.70;;;21.90;49.80;;;;;;5086880;28;20429;-89
2022/04/04 08:32:39;;;;;;;1.00;0.63;;;22.00;49.90;;;;;;5084912;28;20469;-89
2022/04/04 08:35:15;;;;;;;1.00;0.60;;;22.00;49.90;;;;;;5086944;28;20465;-89
2022/04/04 08:37:43;;;;;;;0.87;0.60;;;22.00;49.90;;;;;;5087057;28;20940;-89
2022/04/04 08:40:11;;;;;;;1.00;0.70;;;21.90;49.80;;;;;;5085006;28;20791;-90
2022/04/04 08:42:37;;;;;;;0.80;0.60;;;22.00;49.90;;;;;;5087041;28;20404;-89
2022/04/04 08:45:05;;;;;;;0.97;0.63;;;22.00;49.90;;;;;;5084919;28;20452;-89
2022/04/04 08:47:31;;;;;;;0.90;0.70;;;21.90;49.80;;;;;;5084864;28;20496;-89
2022/04/04 08:49:58;;;;;;;0.90;0.70;;;21.90;49.80;;;;;;5085896;28;20404;-89
2022/04/04 08:52:25;;;;;;;1.07;0.70;;;21.90;49.90;;;;;;5086744;28;20484;-90
2022/04/04 08:54:51;;;;;;;0.70;0.50;;;21.90;49.90;;;;;;5085854;28;20420;-89
2022/04/04 08:57:22;;;;;;;1.00;0.70;;;21.90;49.90;;;;;;5107141;28;20410;-89
2022/04/04 08:59:48;;;;;;;0.80;0.60;;;21.90;49.80;;;;;;5105997;28;20432;-89
2022/04/04 09:02:19;;;;;;;0.87;0.60;;;21.90;49.90;;;;;;5106588;28;20407;-89
2022/04/04 09:04:51;;;;;;;0.80;0.60;;;21.90;49.90;;;;;;5106196;28;20246;-89
2022/04/04 09:07:18;;;;;;;0.90;0.67;;;21.90;49.90;;;;;;5106924;28;20390;-89
2022/04/04 09:09:50;;;;;;;0.80;0.60;;;21.90;49.90;;;;;;5107027;28;20467;-90
2022/04/04 09:12:23;;;;;;;0.80;0.60;;;21.90;49.90;;;;;;5106856;28;20392;-89
2022/04/04 09:14:56;;;;;;;0.97;0.80;;;21.90;49.90;;;;;;5087486;28;20507;-89
2022/04/04 09:17:24;;;;;;;0.80;0.60;;;21.90;49.90;;;;;;5085381;28;20444;-88
2022/04/04 09:19:51;;;;;;;0.80;0.50;;;21.90;49.90;;;;;;5084936;28;20439;-88
2022/04/04 09:22:18;;;;;;;0.80;0.60;;;21.90;49.90;;;;;;5086684;28;20419;-89
2022/04/04 09:25:06;;;;;;;0.73;0.50;;;21.90;49.90;;;;;;5085124;28;20456;-89
2022/04/04 09:27:36;;;;;;;0.80;0.50;;;21.90;49.90;;;;;;5086281;28;20412;-89
2022/04/04 09:30:07;;;;;;;0.90;0.63;;;21.90;49.90;;;;;;5086353;28;20412;-89
2022/04/04 09:32:44;;;;;;;0.90;0.70;;;21.90;49.90;;;;;;5085380;28;20799;-89
2022/04/04 09:35:28;;;;;;;0.70;0.50;;;21.90;49.90;;;;;;5085219;28;20444;-89
2022/04/04 09:37:57;;;;;;;0.90;0.70;;;21.90;49.90;;;;;;5085692;28;20413;-89
2022/04/04 09:40:25;;;;;;;0.90;0.70;;;21.90;49.90;;;;;;5085060;28;20424;-89
2022/04/04 09:42:51;;;;;;;1.23;0.73;;;21.90;49.90;;;;;;5084812;28;20416;-89
2022/04/04 09:45:18;;;;;;;0.80;0.60;;;21.90;50.00;;;;;;5105358;28;20464;-89
2022/04/04 09:47:57;;;;;;;0.90;0.60;;;21.90;50.00;;;;;;5107776;28;20181;-89
2022/04/04 09:54:00;;;;;;;0.93;0.70;;;21.90;50.00;;;;;;5111724;28;20939;-89
2022/04/04 09:56:26;;;;;;;0.90;0.60;;;21.90;50.00;;;;;;5112233;28;20441;-88
2022/04/04 09:58:52;;;;;;;0.90;0.70;;;21.90;50.00;;;;;;5111445;28;20415;-88
2022/04/04 10:01:20;;;;;;;0.80;0.60;;;21.90;50.00;;;;;;5110229;28;20173;-88
2022/04/04 10:03:47;;;;;;;0.80;0.60;;;21.90;50.00;;;;;;5112218;28;20508;-88
2022/04/04 10:06:14;;;;;;;0.90;0.77;;;21.90;50.00;;;;;;5110506;28;20416;-88
2022/04/04 10:08:43;;;;;;;0.93;0.60;;;21.90;50.00;;;;;;5110347;28;20731;-88
2022/04/04 10:11:09;;;;;;;0.93;0.60;;;21.90;50.00;;;;;;5110879;28;20485;-87
2022/04/04 10:13:36;;;;;;;1.00;0.70;;;21.90;50.00;;;;;;5109632;28;20416;-87
2022/04/04 10:16:03;;;;;;;0.80;0.60;;;21.90;50.00;;;;;;5110134;28;20418;-89
2022/04/04 10:18:29;;;;;;;0.80;0.60;;;21.90;50.00;;;;;;5109070;28;20433;-90
2022/04/04 10:20:58;;;;;;;0.90;0.60;;;21.90;50.00;;;;;;5108839;28;20428;-89
2022/04/04 10:23:29;;;;;;;0.80;0.60;;;21.90;50.00;;;;;;5109107;28;20445;-89
2022/04/04 10:25:58;;;;;;;0.83;0.60;;;21.90;50.00;;;;;;5109408;28;20407;-89
2022/04/04 10:28:34;;;;;;;0.80;0.60;;;21.90;50.00;;;;;;5098524;28;20405;-89
2022/04/04 10:31:21;;;;;;;0.90;0.60;;;21.90;50.00;;;;;;5083472;28;20400;-89
2022/04/04 10:33:50;;;;;;;0.80;0.60;;;21.90;50.00;;;;;;5079917;28;20417;-89
2022/04/04 10:36:24;;;;;;;0.97;0.87;;;21.90;50.00;;;;;;5080092;28;20440;-89
2022/04/04 10:39:10;;;;;;;1.10;0.70;;;21.90;50.10;;;;;;5086327;28;20439;-89
2022/04/04 10:41:41;;;;;;;1.00;0.60;;;21.90;50.10;;;;;;5084772;28;20439;-89
2022/04/04 10:44:08;;;;;;;0.90;0.70;;;21.90;50.10;;;;;;5080068;28;20533;-89
2022/04/04 10:46:36;;;;;;;1.03;0.70;;;21.90;50.00;;;;;;5083636;28;20984;-89
2022/04/04 10:49:06;;;;;;;0.97;0.77;;;21.90;50.00;;;;;;5089313;28;20416;-89
2022/04/04 10:51:31;;;;;;;1.43;1.00;;;21.90;50.00;;;;;;5090403;28;20412;-88
2022/04/04 10:54:02;;;;;;;1.10;0.80;;;21.90;50.00;;;;;;5085243;28;20428;-88
2022/04/04 10:56:31;;;;;;;2.80;0.83;;;21.90;50.00;;;;;;5089420;28;20191;-88
2022/04/04 10:59:15;;;;;;;1.73;1.20;;;21.90;50.00;;;;;;5089490;28;20494;-89
2022/04/04 11:01:43;;;;;;;1.30;1.00;;;21.90;50.00;;;;;;5083049;28;20424;-88
2022/04/04 11:04:23;;;;;;;3.00;1.40;;;21.90;50.00;;;;;;5088200;28;20463;-89
2022/04/04 11:09:55;;;;;;;2.27;1.40;;;21.90;50.00;;;;;;5088069;28;20416;-89
2022/04/04 11:12:24;;;;;;;1.97;1.00;;;21.90;50.00;;;;;;5085309;28;20472;-89
2022/04/04 11:15:13;;;;;;;1.53;1.10;;;21.90;50.00;;;;;;5084033;28;20429;-89
2022/04/04 11:18:05;;;;;;;2.40;1.37;;;21.90;50.00;;;;;;5076811;28;20457;-89
2022/04/04 11:20:31;;;;;;;3.23;1.40;;;21.90;50.10;;;;;;5079757;28;20422;-88
2022/04/04 11:22:59;;;;;;;3.70;1.77;;;21.90;50.10;;;;;;5068435;28;20408;-90
2022/04/04 11:25:33;;;;;;;5.10;2.20;;;21.90;50.10;;;;;;5083973;28;20445;-89
2022/04/04 11:28:00;;;;;;;5.43;2.10;;;21.90;50.00;;;;;;5083200;28;20432;-89
2022/04/04 11:30:29;;;;;;;5.33;2.70;;;21.90;50.10;;;;;;5068764;28;20421;-89
2022/04/04 11:32:57;;;;;;;3.80;2.40;;;21.90;50.10;;;;;;5066806;28;20413;-89
2022/04/04 11:35:30;;;;;;;6.30;3.57;;;21.90;50.60;;;;;;5068910;28;20410;-89
2022/04/04 11:38:11;;;;;;;5.90;3.50;;;21.90;50.10;;;;;;5068263;28;20390;-89
2022/04/04 11:40:39;;;;;;;6.23;4.10;;;21.90;50.10;;;;;;5067990;28;20397;-89
2022/04/04 11:43:09;;;;;;;6.97;3.97;;;21.90;50.10;;;;;;5067583;28;20441;-89
2022/04/04 11:45:37;;;;;;;8.83;3.57;;;21.90;50.10;;;;;;5085565;28;20452;-89
2022/04/04 11:48:13;;;;;;;8.50;4.57;;;21.90;50.10;;;;;;5084677;28;20473;-89
2022/04/04 11:50:39;;;;;;;6.50;4.00;;;21.90;50.10;;;;;;5068727;28;20461;-89
2022/04/04 11:53:25;;;;;;;6.03;4.17;;;21.90;50.10;;;;;;5086764;28;20421;-89
2022/04/04 11:56:04;;;;;;;7.27;3.83;;;21.90;50.10;;;;;;5083796;28;20421;-89
2022/04/04 11:58:35;;;;;;;8.60;4.80;;;21.90;50.10;;;;;;5069903;28;20393;-89
2022/04/04 12:01:04;;;;;;;8.63;4.60;;;21.90;50.20;;;;;;5069337;28;20406;-88
2022/04/04 12:03:40;;;;;;;9.13;5.07;;;21.90;50.10;;;;;;5066759;28;20429;-89
2022/04/04 12:06:07;;;;;;;5.93;4.10;;;21.90;50.10;;;;;;5067924;28;20400;-89
2022/04/04 12:08:35;;;;;;;11.17;5.33;;;21.90;50.10;;;;;;5067935;28;20414;-89
2022/04/04 12:11:01;;;;;;;7.93;4.97;;;21.90;50.10;;;;;;5082791;28;20460;-89
2022/04/04 12:13:27;;;;;;;13.63;6.20;;;21.90;50.20;;;;;;5067359;28;20469;-89
2022/04/04 12:15:56;;;;;;;10.07;4.73;;;21.90;50.10;;;;;;5083046;28;20448;-88
2022/04/04 12:18:29;;;;;;;7.93;4.23;;;21.90;50.10;;;;;;5067197;28;20413;-88
2022/04/04 12:21:02;;;;;;;6.37;4.73;;;21.90;50.10;;;;;;5065906;28;20422;-88
2022/04/04 12:26:22;;;;;;;7.53;5.17;;;21.90;50.10;;;;;;5067284;28;20492;-89
2022/04/04 12:28:50;;;;;;;6.60;4.67;;;21.90;50.10;;;;;;5067703;28;20440;-89
2022/04/04 12:31:22;;;;;;;8.50;5.43;;;21.90;50.20;;;;;;5066988;28;20410;-89
2022/04/04 12:34:06;;;;;;;9.00;5.37;;;21.90;50.80;;;;;;5066035;28;20406;-89
2022/04/04 12:36:43;;;;;;;10.50;6.33;;;21.90;50.20;;;;;;5083040;28;20735;-88
2022/04/04 12:39:20;;;;;;;8.47;4.97;;;21.90;50.20;;;;;;5083142;28;20413;-89
2022/04/04 12:41:51;;;;;;;8.30;5.00;;;21.90;50.20;;;;;;5084906;28;20440;-89
2022/04/04 12:44:35;;;;;;;7.47;4.97;;;21.90;50.20;;;;;;5068642;28;20979;-88
2022/04/04 12:47:09;;;;;;;9.13;4.60;;;21.90;50.20;;;;;;5083636;28;20402;-88
2022/04/04 12:49:38;;;;;;;7.70;4.97;;;21.90;50.20;;;;;;5067534;28;20411;-88
2022/04/04 12:52:11;;;;;;;9.77;4.90;;;21.90;50.30;;;;;;5068822;28;20456;-89
2022/04/04 12:54:42;;;;;;;7.50;5.30;;;21.90;50.20;;;;;;5082260;28;20485;-88
2022/04/04 12:57:11;;;;;;;6.77;5.50;;;21.90;50.20;;;;;;5100107;28;20425;-88
2022/04/04 12:59:51;;;;;;;9.10;4.53;;;21.90;50.20;;;;;;5087431;28;20428;-88
2022/04/04 13:02:32;;;;;;;8.10;5.37;;;21.90;50.30;;;;;;5086953;28;20428;-88
2022/04/04 13:05:14;;;;;;;7.93;4.40;;;21.90;50.30;;;;;;5086369;28;20446;-88
2022/04/04 13:14:15;;;;;;;7.77;4.20;;;21.90;50.30;;;;;;5066206;28;20415;-88
2022/04/04 13:16:47;;;;;;;9.27;5.00;;;21.80;50.30;;;;;;5066482;28;20435;-89
2022/04/04 13:19:22;;;;;;;8.10;5.03;;;21.80;50.30;;;;;;5082627;28;20412;-89
2022/04/04 13:21:50;;;;;;;6.40;4.50;;;21.90;50.40;;;;;;5086243;28;20504;-89
2022/04/04 13:24:17;;;;;;;7.90;4.90;;;21.80;50.30;;;;;;5103060;28;20448;-88
2022/04/04 13:26:47;;;;;;;6.17;4.20;;;21.90;50.30;;;;;;5086004;28;20459;-88
2022/04/04 13:29:13;;;;;;;10.03;4.40;;;21.90;50.30;;;;;;5089514;28;20405;-90
2022/04/04 13:31:40;;;;;;;13.93;4.80;;;21.90;50.30;;;;;;5090001;28;20767;-89
2022/04/04 13:34:07;;;;;;;8.20;4.60;;;21.90;50.30;;;;;;5090606;28;20405;-89
2022/04/04 13:36:34;;;;;;;8.20;4.33;;;21.90;50.30;;;;;;5089901;28;20416;-90
2022/04/04 13:39:00;;;;;;;9.40;5.00;;;21.90;50.30;;;;;;5091407;28;20408;-89
2022/04/04 13:41:28;;;;;;;5.13;3.70;;;21.90;50.30;;;;;;5093641;28;20423;-89
2022/04/04 13:43:55;;;;;;;6.17;4.20;;;21.90;50.30;;;;;;5075515;28;20539;-89
2022/04/04 13:46:23;;;;;;;6.63;4.80;;;21.90;50.30;;;;;;5090035;28;20436;-89
2022/04/04 13:48:49;;;;;;;6.67;4.97;;;21.90;50.30;;;;;;5091617;28;20413;-88
2022/04/04 13:54:42;;;;;;;7.93;4.27;;;21.90;50.30;;;;;;5092907;28;20185;-89
2022/04/04 13:57:10;;;;;;;6.60;4.00;;;21.90;50.30;;;;;;5091786;28;20439;-88